createdAt,value
2022-12-12T00:01:56.483Z,99131.95
2022-12-12T00:04:26.266Z,99133.82
2022-12-12T00:06:55.801Z,99136.50
2022-12-12T00:09:25.578Z,99122.34
2022-12-12T00:11:55.038Z,99122.34
2022-12-12T00:14:24.853Z,99121.20
2022-12-12T00:16:54.409Z,99126.44
2022-12-12T00:19:24.299Z,99125.50
2022-12-12T00:21:53.835Z,99120.29
2022-12-12T00:24:23.468Z,99122.01
2022-12-12T00:26:53.262Z,99127.03
2022-12-12T00:29:22.799Z,99121.19
2022-12-12T00:31:52.384Z,99123.75
2022-12-12T00:34:22.280Z,99126.47
2022-12-12T00:36:54.659Z,99128.37
2022-12-12T00:39:24.519Z,99122.73
2022-12-12T00:41:54.810Z,99122.95
2022-12-12T00:44:24.591Z,99124.99
2022-12-12T00:46:54.976Z,99125.77
2022-12-12T00:49:25.055Z,99124.23
2022-12-12T00:51:54.673Z,99132.94
2022-12-12T00:54:24.787Z,99130.11
2022-12-12T00:56:57.220Z,99136.14
2022-12-12T00:59:27.011Z,99140.66
2022-12-12T01:01:56.875Z,99136.77
2022-12-12T01:04:26.577Z,99136.74
2022-12-12T01:06:56.772Z,99137.95
2022-12-12T01:09:26.504Z,99143.58
2022-12-12T01:11:56.050Z,99138.16
2022-12-12T01:14:26.301Z,99141.34
2022-12-12T01:16:56.412Z,99141.34
2022-12-12T01:19:26.161Z,99146.14
2022-12-12T01:21:55.773Z,99145.99
2022-12-12T01:24:25.575Z,99156.23
2022-12-12T01:26:56.610Z,99149.88
2022-12-12T01:29:26.649Z,99147.23
2022-12-12T01:31:56.624Z,99145.88
2022-12-12T01:34:26.735Z,99143.94
2022-12-12T01:36:56.689Z,99145.81
2022-12-12T01:39:26.180Z,99140.69
2022-12-12T01:41:55.742Z,99133.76
2022-12-12T01:44:46.613Z,99130.59
2022-12-12T01:47:18.639Z,99130.06
2022-12-12T01:49:53.694Z,99130.92
2022-12-12T01:52:45.083Z,99127.09
2022-12-12T01:55:20.557Z,99131.38
2022-12-12T01:57:53.647Z,99128.59
2022-12-12T02:00:23.322Z,99136.22
2022-12-12T02:02:55.843Z,99130.34
2022-12-12T02:05:31.936Z,99129.30
2022-12-12T02:08:04.694Z,99134.80
2022-12-12T02:10:34.965Z,99132.92
2022-12-12T02:13:10.349Z,99139.59
2022-12-12T02:16:06.036Z,99144.21
2022-12-12T02:18:44.582Z,99138.31
2022-12-12T02:21:29.112Z,99140.17
2022-12-12T02:24:04.261Z,99142.25
2022-12-12T02:26:51.875Z,99140.32
2022-12-12T02:29:39.471Z,99144.42
2022-12-12T02:32:18.175Z,99140.45
2022-12-12T02:35:11.304Z,99141.69
2022-12-12T02:37:44.433Z,99141.69
2022-12-12T02:40:26.102Z,99141.67
2022-12-12T02:43:25.549Z,99144.03
2022-12-12T02:46:13.269Z,99140.00
2022-12-12T02:48:52.132Z,99138.91
2022-12-12T02:51:23.481Z,99143.58
2022-12-12T02:53:53.016Z,99135.97
2022-12-12T02:56:42.657Z,99134.61
2022-12-12T02:59:36.940Z,99128.38
2022-12-12T03:02:21.214Z,99135.14
2022-12-12T03:05:27.774Z,99137.85
2022-12-12T03:08:27.407Z,99142.91
2022-12-12T03:11:06.031Z,99142.73
2022-12-12T03:13:53.533Z,99137.20
2022-12-12T03:16:29.190Z,99138.77
2022-12-12T03:19:02.007Z,99138.77
2022-12-12T03:21:49.506Z,99127.03
2022-12-12T03:24:24.827Z,99127.03
2022-12-12T03:27:09.480Z,99142.92
2022-12-12T03:29:51.240Z,99132.14
2022-12-12T03:32:26.659Z,99141.09
2022-12-12T03:35:05.644Z,99141.22
2022-12-12T03:37:44.608Z,99135.39
2022-12-12T03:40:23.122Z,99129.17
2022-12-12T03:42:58.941Z,99131.39
2022-12-12T03:45:37.392Z,99133.77
2022-12-12T03:48:19.725Z,99135.08
2022-12-12T03:50:59.223Z,99137.00
2022-12-12T03:53:32.599Z,99134.88
2022-12-12T03:56:10.443Z,99126.63
2022-12-12T03:59:05.821Z,99125.98
2022-12-12T04:01:38.717Z,99125.61
2022-12-12T04:04:14.693Z,99122.28
2022-12-12T04:06:53.118Z,99118.54
2022-12-12T04:09:41.921Z,99123.80
2022-12-12T04:12:44.348Z,99120.87
2022-12-12T04:15:39.778Z,99120.53
2022-12-12T04:18:18.466Z,99119.05
2022-12-12T04:21:27.327Z,99113.81
2022-12-12T04:24:20.849Z,99114.21
2022-12-12T04:27:08.409Z,99113.37
2022-12-12T04:29:44.007Z,99115.04
2022-12-12T04:32:35.066Z,99117.43
2022-12-12T04:35:22.900Z,99106.04
2022-12-12T04:37:58.263Z,99108.95
2022-12-12T04:40:30.835Z,99113.10
2022-12-12T04:43:06.422Z,99110.25
2022-12-12T04:45:39.327Z,99112.59
2022-12-12T04:48:12.573Z,99108.94
2022-12-12T04:50:44.250Z,99108.30
2022-12-12T04:53:18.741Z,99115.95
2022-12-12T04:55:51.173Z,99112.39
2022-12-12T04:58:21.068Z,99107.91
2022-12-12T05:01:05.742Z,99109.53
2022-12-12T05:03:59.360Z,99110.51
2022-12-12T05:06:35.027Z,99111.16
2022-12-12T05:09:05.238Z,99108.11
2022-12-12T05:11:35.715Z,99106.95
2022-12-12T05:14:11.050Z,99106.14
2022-12-12T05:16:44.006Z,99113.09
2022-12-12T05:19:13.943Z,99116.66
2022-12-12T05:21:43.778Z,99092.47
2022-12-12T05:24:13.587Z,99107.50
2022-12-12T05:26:43.558Z,99107.50
2022-12-12T05:29:13.009Z,99105.06
2022-12-12T05:31:42.791Z,99111.73
2022-12-12T05:34:12.504Z,99111.73
2022-12-12T05:36:42.063Z,99107.72
2022-12-12T05:39:11.609Z,99106.59
2022-12-12T05:41:41.204Z,99112.00
2022-12-12T05:44:11.211Z,99109.91
2022-12-12T05:46:40.694Z,99113.98
2022-12-12T05:49:10.304Z,99116.20
2022-12-12T05:51:40.089Z,99114.70
2022-12-12T05:54:09.547Z,99113.53
2022-12-12T05:56:39.323Z,99112.56
2022-12-12T05:59:09.006Z,99113.21
2022-12-12T06:01:38.860Z,99113.02
2022-12-12T06:04:08.648Z,99110.48
2022-12-12T06:06:38.344Z,99110.84
2022-12-12T06:09:08.195Z,99097.72
2022-12-12T06:11:37.967Z,99097.72
2022-12-12T06:14:07.415Z,99111.66
2022-12-12T06:16:37.337Z,99110.16
2022-12-12T06:19:06.788Z,99115.88
2022-12-12T06:21:36.283Z,99114.70
2022-12-12T06:24:07.825Z,99115.55
2022-12-12T06:26:37.695Z,99115.55
2022-12-12T06:29:07.727Z,99115.19
2022-12-12T06:31:37.248Z,99121.61
2022-12-12T06:34:07.009Z,99119.08
2022-12-12T06:36:37.436Z,99121.38
2022-12-12T06:39:07.254Z,99130.69
2022-12-12T06:41:37.447Z,99124.73
2022-12-12T06:44:07.882Z,99123.62
2022-12-12T06:46:37.470Z,99122.45
2022-12-12T06:49:08.890Z,99126.16
2022-12-12T06:51:43.060Z,99134.39
2022-12-12T06:54:15.403Z,99133.80
2022-12-12T06:56:48.517Z,99134.33
2022-12-12T06:59:17.566Z,99132.83
2022-12-12T07:01:47.606Z,99139.32
2022-12-12T07:04:17.380Z,99133.80
2022-12-12T07:06:47.072Z,99133.80
2022-12-12T07:09:16.979Z,99135.88
2022-12-12T07:11:46.652Z,99136.62
2022-12-12T07:14:16.407Z,99137.98
2022-12-12T07:16:46.005Z,99133.73
2022-12-12T07:19:15.754Z,99136.95
2022-12-12T07:21:45.509Z,99144.58
2022-12-12T07:24:15.672Z,99141.42
2022-12-12T07:26:45.368Z,99150.77
2022-12-12T07:29:15.842Z,99144.66
2022-12-12T07:31:45.783Z,99150.51
2022-12-12T07:34:15.344Z,99153.75
2022-12-12T07:36:44.791Z,99152.70
2022-12-12T07:39:20.158Z,99142.33
2022-12-12T07:41:46.067Z,99153.55
2022-12-12T07:44:16.503Z,99151.62
2022-12-12T07:46:46.437Z,99156.53
2022-12-12T07:49:16.035Z,99162.05
2022-12-12T07:51:49.174Z,99167.77
2022-12-12T07:54:17.420Z,99165.23
2022-12-12T07:56:47.231Z,99168.82
2022-12-12T07:59:17.569Z,99172.56
2022-12-12T08:01:47.162Z,99174.51
2022-12-12T08:04:16.749Z,99167.38
2022-12-12T08:06:46.493Z,99166.55
2022-12-12T08:09:16.860Z,99167.75
2022-12-12T08:11:47.145Z,99168.66
2022-12-12T08:14:16.758Z,99156.80
2022-12-12T08:16:46.217Z,99156.80
2022-12-12T08:19:15.803Z,99176.84
2022-12-12T08:21:46.399Z,99174.00
2022-12-12T08:24:17.480Z,99175.63
2022-12-12T08:26:47.308Z,99175.84
2022-12-12T08:29:17.082Z,99175.84
2022-12-12T08:31:47.138Z,99176.01
2022-12-12T08:34:16.743Z,99177.70
2022-12-12T08:36:47.319Z,99178.16
2022-12-12T08:39:17.451Z,99169.52
2022-12-12T08:41:48.803Z,99169.52
2022-12-12T08:44:20.419Z,99187.84
2022-12-12T08:46:50.714Z,99192.13
2022-12-12T08:49:20.656Z,99198.94
2022-12-12T08:51:51.479Z,99202.64
2022-12-12T08:54:21.263Z,99202.64
2022-12-12T08:56:51.009Z,99195.38
2022-12-12T08:59:21.162Z,99195.38
2022-12-12T09:01:50.778Z,99196.90
2022-12-12T09:04:20.739Z,99198.48
2022-12-12T09:06:50.495Z,99199.38
2022-12-12T09:09:20.350Z,99198.67
2022-12-12T09:11:50.098Z,99203.43
2022-12-12T09:14:19.730Z,99203.43
2022-12-12T09:16:49.840Z,99202.51
2022-12-12T09:19:19.624Z,99207.36
2022-12-12T09:21:49.338Z,99206.84
2022-12-12T09:24:19.701Z,99206.84
2022-12-12T09:26:49.487Z,99210.50
2022-12-12T09:29:18.943Z,99210.81
2022-12-12T09:31:48.790Z,99206.14
2022-12-12T09:34:18.499Z,99212.44
2022-12-12T09:36:48.340Z,99209.24
2022-12-12T09:39:17.794Z,99208.27
2022-12-12T09:41:47.562Z,99204.02
2022-12-12T09:44:22.655Z,99210.72
2022-12-12T09:47:00.401Z,99204.69
2022-12-12T09:49:43.418Z,99213.33
2022-12-12T09:52:13.508Z,99209.92
2022-12-12T09:54:44.287Z,99212.80
2022-12-12T09:57:38.650Z,99217.09
2022-12-12T10:00:12.458Z,99211.44
2022-12-12T10:02:45.389Z,99209.57
2022-12-12T10:05:32.776Z,99217.02
2022-12-12T10:08:14.444Z,99209.02
2022-12-12T10:10:49.895Z,99213.69
2022-12-12T10:13:25.412Z,99211.40
2022-12-12T10:16:01.035Z,99215.16
2022-12-12T10:18:33.868Z,99216.28
2022-12-12T10:21:06.646Z,99213.33
2022-12-12T10:23:48.502Z,99211.30
2022-12-12T10:26:21.291Z,99215.44
2022-12-12T10:28:53.553Z,99213.02
2022-12-12T10:31:28.859Z,99219.52
2022-12-12T10:34:13.230Z,99216.77
2022-12-12T10:36:57.422Z,99209.73
2022-12-12T10:39:48.494Z,99217.47
2022-12-12T10:42:26.895Z,99207.21
2022-12-12T10:45:14.995Z,99211.28
2022-12-12T10:47:46.328Z,99217.33
2022-12-12T10:50:31.287Z,99216.03
2022-12-12T10:53:03.609Z,99215.64
2022-12-12T10:55:54.659Z,99215.49
2022-12-12T10:58:29.563Z,99219.39
2022-12-12T11:01:04.616Z,99216.81
2022-12-12T11:03:40.465Z,99218.59
2022-12-12T11:06:13.415Z,99219.27
2022-12-12T11:08:53.804Z,99208.39
2022-12-12T11:11:25.827Z,99208.39
2022-12-12T11:14:03.687Z,99210.63
2022-12-12T11:16:44.731Z,99211.84
2022-12-12T11:19:23.631Z,99217.67
2022-12-12T11:21:55.747Z,99215.37
2022-12-12T11:24:28.540Z,99213.93
2022-12-12T11:27:07.253Z,99214.97
2022-12-12T11:29:43.299Z,99212.84
2022-12-12T11:32:18.960Z,99205.86
2022-12-12T11:34:52.125Z,99205.86
2022-12-12T11:37:24.299Z,99211.08
2022-12-12T11:39:57.322Z,99213.45
2022-12-12T11:42:32.828Z,99213.16
2022-12-12T11:45:12.139Z,99214.14
2022-12-12T11:47:47.697Z,99212.53
2022-12-12T11:50:29.347Z,99220.64
2022-12-12T11:53:02.129Z,99216.74
2022-12-12T11:55:43.964Z,99226.67
2022-12-12T11:58:28.156Z,99228.92
2022-12-12T12:01:26.330Z,99224.30
2022-12-12T12:04:15.654Z,99225.14
2022-12-12T12:06:54.514Z,99228.97
2022-12-12T12:09:36.241Z,99228.12
2022-12-12T12:12:09.626Z,99231.34
2022-12-12T12:15:00.181Z,99231.34
2022-12-12T12:17:52.881Z,99233.41
2022-12-12T12:20:48.047Z,99238.92
2022-12-12T12:23:42.512Z,99239.00
2022-12-12T12:26:15.927Z,99236.48
2022-12-12T12:29:01.873Z,99239.16
2022-12-12T12:31:46.453Z,99240.92
2022-12-12T12:34:27.546Z,99246.36
2022-12-12T12:37:15.543Z,99241.07
2022-12-12T12:40:06.548Z,99242.14
2022-12-12T12:43:00.733Z,99246.23
2022-12-12T12:45:49.262Z,99245.89
2022-12-12T12:48:38.641Z,99247.00
2022-12-12T12:51:13.813Z,99250.56
2022-12-12T12:53:49.331Z,99237.31
2022-12-12T12:56:26.038Z,99243.29
2022-12-12T12:58:56.582Z,99250.52
2022-12-12T13:01:42.048Z,99236.78
2022-12-12T13:04:29.855Z,99243.09
2022-12-12T13:07:17.782Z,99249.73
2022-12-12T13:09:56.253Z,99251.25
2022-12-12T13:12:41.449Z,99259.15
2022-12-12T13:15:29.395Z,99270.33
2022-12-12T13:18:05.023Z,99269.33
2022-12-12T13:20:38.069Z,99276.02
2022-12-12T13:23:23.444Z,99274.53
2022-12-12T13:25:59.355Z,99277.92
2022-12-12T13:28:32.176Z,99285.51
2022-12-12T13:31:13.300Z,99285.73
2022-12-12T13:33:46.548Z,99293.52
2022-12-12T13:36:29.109Z,99303.64
2022-12-12T13:39:02.300Z,99300.19
2022-12-12T13:42:01.648Z,99296.98
2022-12-12T13:44:37.147Z,99312.47
2022-12-12T13:47:22.106Z,99312.47
2022-12-12T13:50:07.014Z,99303.55
2022-12-12T13:52:42.472Z,99311.17
2022-12-12T13:55:18.251Z,99305.27
2022-12-12T13:58:04.990Z,99311.21
2022-12-12T14:00:39.935Z,99321.27
2022-12-12T14:03:15.533Z,99329.67
2022-12-12T14:05:48.433Z,99325.17
2022-12-12T14:08:21.209Z,99333.00
2022-12-12T14:10:57.369Z,99330.02
2022-12-12T14:13:33.294Z,99329.07
2022-12-12T14:16:20.595Z,99332.02
2022-12-12T14:19:05.787Z,99337.69
2022-12-12T14:21:44.728Z,99334.38
2022-12-12T14:24:37.418Z,99343.48
2022-12-12T14:27:11.708Z,99350.11
2022-12-12T14:29:43.884Z,99352.00
2022-12-12T14:32:16.593Z,99344.13
2022-12-12T14:35:15.256Z,99349.58
2022-12-12T14:38:12.045Z,99349.58
2022-12-12T14:40:45.438Z,99356.42
2022-12-12T14:43:22.011Z,99355.97
2022-12-12T14:45:55.441Z,99355.45
2022-12-12T14:48:36.209Z,99358.11
2022-12-12T14:51:16.889Z,99357.12
2022-12-12T14:53:49.906Z,99354.00
2022-12-12T14:56:32.118Z,99357.02
2022-12-12T14:59:04.960Z,99359.16
2022-12-12T15:01:37.762Z,99363.65
2022-12-12T15:04:10.135Z,99363.65
2022-12-12T15:06:42.134Z,99367.99
2022-12-12T15:09:17.327Z,99370.06
2022-12-12T15:11:48.970Z,99380.00
2022-12-12T15:14:27.786Z,99374.10
2022-12-12T15:17:09.373Z,99385.92
2022-12-12T15:19:47.968Z,99385.92
2022-12-12T15:22:35.761Z,99387.55
2022-12-12T15:25:21.561Z,99390.47
2022-12-12T15:27:56.247Z,99387.94
2022-12-12T15:30:31.462Z,99382.58
2022-12-12T15:33:02.532Z,99382.58
2022-12-12T15:35:33.459Z,99395.19
2022-12-12T15:38:03.292Z,99395.19
2022-12-12T15:40:37.424Z,99397.81
2022-12-12T15:43:10.435Z,99397.27
2022-12-12T15:45:51.860Z,99403.44
2022-12-12T15:48:21.691Z,99404.73
2022-12-12T15:50:58.708Z,99406.20
2022-12-12T15:53:34.512Z,99409.67
2022-12-12T15:56:11.523Z,99403.45
2022-12-12T15:58:47.211Z,99409.95
2022-12-12T16:01:21.925Z,99399.63
2022-12-12T16:04:03.687Z,99399.63
2022-12-12T16:06:44.749Z,99404.87
2022-12-12T16:09:25.699Z,99408.13
2022-12-12T16:11:58.185Z,99400.31
2022-12-12T16:14:41.284Z,99404.80
2022-12-12T16:17:25.242Z,99412.22
2022-12-12T16:20:01.464Z,99411.70
2022-12-12T16:22:39.856Z,99410.14
2022-12-12T16:25:15.621Z,99404.08
2022-12-12T16:27:46.801Z,99417.08
2022-12-12T16:30:17.747Z,99424.16
2022-12-12T16:32:47.726Z,99432.84
2022-12-12T16:35:19.642Z,99429.86
2022-12-12T16:37:49.872Z,99428.05
2022-12-12T16:40:21.863Z,99441.88
2022-12-12T16:42:57.300Z,99437.41
2022-12-12T16:45:26.872Z,99444.50
2022-12-12T16:47:56.504Z,99449.63
2022-12-12T16:50:26.310Z,99445.92
2022-12-12T16:52:56.389Z,99445.63
2022-12-12T16:55:26.768Z,99451.39
2022-12-12T16:57:57.973Z,99457.48
2022-12-12T17:00:27.719Z,99455.52
2022-12-12T17:02:57.844Z,99456.20
2022-12-12T17:05:29.111Z,99454.90
2022-12-12T17:07:59.258Z,99448.73
2022-12-12T17:10:30.471Z,99459.00
2022-12-12T17:13:00.256Z,99462.67
2022-12-12T17:15:31.131Z,99465.55
2022-12-12T17:18:01.229Z,99465.55
2022-12-12T17:20:37.814Z,99471.58
2022-12-12T17:25:50.460Z,99488.09
2022-12-12T17:31:02.937Z,99487.41
2022-12-12T17:33:32.984Z,99496.48
2022-12-12T17:36:05.685Z,99493.50
2022-12-12T17:38:35.529Z,99502.29
2022-12-12T17:41:09.148Z,99504.25
2022-12-12T17:43:40.429Z,99508.14
2022-12-12T17:46:14.548Z,99511.77
2022-12-12T17:48:49.269Z,99514.77
2022-12-12T17:51:23.304Z,99518.07
2022-12-12T17:53:53.049Z,99514.23
2022-12-12T17:56:24.477Z,99513.08
2022-12-12T17:58:54.704Z,99513.69
2022-12-12T18:01:31.380Z,99521.81
2022-12-12T18:04:02.951Z,99532.61
2022-12-12T18:06:34.740Z,99522.71
2022-12-12T18:09:05.424Z,99532.20
2022-12-12T18:11:35.965Z,99530.97
2022-12-12T18:14:08.484Z,99535.59
2022-12-12T18:16:38.154Z,99541.13
2022-12-12T18:19:07.724Z,99544.17
2022-12-12T18:24:10.247Z,99543.35
2022-12-12T18:26:40.624Z,99537.27
2022-12-12T18:29:11.926Z,99536.87
2022-12-12T18:31:41.620Z,99541.71
2022-12-12T18:34:11.230Z,99549.48
2022-12-12T18:36:40.884Z,99542.84
2022-12-12T18:39:11.571Z,99545.59
2022-12-12T18:41:41.206Z,99555.88
2022-12-12T18:44:13.975Z,99554.78
2022-12-12T18:46:44.100Z,99560.47
2022-12-12T18:49:17.254Z,99564.31
2022-12-12T18:51:48.047Z,99562.91
2022-12-12T18:54:18.605Z,99564.66
2022-12-12T18:56:50.272Z,99569.09
2022-12-12T18:59:20.042Z,99566.91
2022-12-12T19:01:51.732Z,99565.95
2022-12-12T19:04:23.758Z,99572.68
2022-12-12T19:06:53.702Z,99563.27
2022-12-12T19:09:23.613Z,99564.70
2022-12-12T19:12:01.691Z,99571.88
2022-12-12T19:14:24.816Z,99576.77
2022-12-12T19:16:54.365Z,99574.69
2022-12-12T19:19:23.826Z,99581.17
2022-12-12T19:21:53.311Z,99576.83
2022-12-12T19:24:22.798Z,99578.12
2022-12-12T19:26:52.545Z,99581.75
2022-12-12T19:29:22.067Z,99584.00
2022-12-12T19:31:58.407Z,99587.95
2022-12-12T19:34:24.275Z,99595.73
2022-12-12T19:36:54.445Z,99594.03
2022-12-12T19:39:23.920Z,99607.16
2022-12-12T19:41:53.418Z,99603.47
2022-12-12T19:44:23.106Z,99612.92
2022-12-12T19:46:52.681Z,99608.53
2022-12-12T19:49:22.319Z,99613.73
2022-12-12T19:51:51.838Z,99612.34
2022-12-12T19:54:22.028Z,99617.48
2022-12-12T19:56:51.564Z,99621.66
2022-12-12T19:59:21.091Z,99622.01
2022-12-12T20:01:50.684Z,99619.87
2022-12-12T20:04:24.078Z,99625.70
2022-12-12T20:06:54.188Z,99622.22
2022-12-12T20:09:26.862Z,99629.50
2022-12-12T20:11:58.791Z,99634.23
2022-12-12T20:14:31.175Z,99625.11
2022-12-12T20:17:02.765Z,99635.33
2022-12-12T20:19:32.390Z,99631.78
2022-12-12T20:22:03.145Z,99638.30
2022-12-12T20:24:34.432Z,99638.52
2022-12-12T20:27:04.460Z,99637.52
2022-12-12T20:29:34.040Z,99645.20
2022-12-12T20:32:03.948Z,99651.71
2022-12-12T20:34:33.459Z,99647.20
2022-12-12T20:37:02.968Z,99649.41
2022-12-12T20:39:33.139Z,99651.95
2022-12-12T20:42:02.613Z,99652.80
2022-12-12T20:44:32.636Z,99645.73
2022-12-12T20:47:02.456Z,99646.91
2022-12-12T20:49:32.039Z,99649.61
2022-12-12T20:52:01.656Z,99661.31
2022-12-12T20:54:31.305Z,99657.53
2022-12-12T20:57:01.923Z,99658.15
2022-12-12T20:59:31.786Z,99658.15
2022-12-12T21:02:02.388Z,99670.45
2022-12-12T21:04:32.212Z,99668.98
2022-12-12T21:07:01.849Z,99668.98
2022-12-12T21:09:31.590Z,99677.72
2022-12-12T21:12:01.171Z,99690.55
2022-12-12T21:14:32.360Z,99693.14
2022-12-12T21:17:02.392Z,99696.13
2022-12-12T21:19:31.933Z,99694.43
2022-12-12T21:22:02.289Z,99699.62
2022-12-12T21:24:32.259Z,99692.55
2022-12-12T21:27:01.760Z,99694.16
2022-12-12T21:29:31.238Z,99693.49
2022-12-12T21:32:00.736Z,99695.14
2022-12-12T21:34:30.238Z,99676.15
2022-12-12T21:36:59.784Z,99676.15
2022-12-12T21:39:31.213Z,99695.39
2022-12-12T21:42:00.657Z,99696.29
2022-12-12T21:44:30.157Z,99692.72
2022-12-12T21:46:59.604Z,99696.65
2022-12-12T21:49:31.094Z,99693.00
2022-12-12T21:52:03.756Z,99692.75
2022-12-12T21:54:33.780Z,99688.52
2022-12-12T21:57:04.159Z,99681.41
2022-12-12T21:59:35.433Z,99692.89
2022-12-12T22:02:06.466Z,99690.63
2022-12-12T22:04:35.963Z,99690.48
2022-12-12T22:07:08.441Z,99686.83
2022-12-12T22:09:39.183Z,99687.55
2022-12-12T22:12:09.188Z,99690.63
2022-12-12T22:14:38.664Z,99694.78
2022-12-12T22:17:08.481Z,99695.46
2022-12-12T22:19:37.964Z,99694.46
2022-12-12T22:22:07.494Z,99702.09
2022-12-12T22:24:36.970Z,99701.59
